createdAt,value
2022-11-14T00:02:09.971Z,13.50
2022-11-14T00:04:55.593Z,13.50
2022-11-14T00:07:41.461Z,13.50
2022-11-14T00:10:27.385Z,13.50
2022-11-14T00:13:13.826Z,13.50
2022-11-14T00:15:59.653Z,13.50
2022-11-14T00:18:45.566Z,13.50
2022-11-14T00:21:31.272Z,13.50
2022-11-14T00:24:17.168Z,13.40
2022-11-14T00:27:03.125Z,13.50
2022-11-14T00:29:48.659Z,13.50
2022-11-14T00:32:34.643Z,13.50
2022-11-14T00:35:20.424Z,13.50
2022-11-14T00:38:06.356Z,13.50
2022-11-14T00:40:52.629Z,13.50
2022-11-14T00:43:38.514Z,13.50
2022-11-14T00:46:24.519Z,13.50
2022-11-14T00:49:11.022Z,13.50
2022-11-14T00:51:56.868Z,13.40
2022-11-14T00:54:42.768Z,13.40
2022-11-14T00:57:28.644Z,13.40
2022-11-14T01:00:15.112Z,13.50
2022-11-14T01:03:00.972Z,13.50
2022-11-14T01:05:49.530Z,13.40
2022-11-14T01:08:36.215Z,13.40
2022-11-14T01:11:23.167Z,13.50
2022-11-14T01:14:09.449Z,13.40
2022-11-14T01:16:55.328Z,13.50
2022-11-14T01:19:41.377Z,13.50
2022-11-14T01:22:27.291Z,13.50
2022-11-14T01:25:13.184Z,13.50
2022-11-14T01:27:59.085Z,13.50
2022-11-14T01:30:45.472Z,13.50
2022-11-14T01:33:31.435Z,13.40
2022-11-14T01:36:18.156Z,13.40
2022-11-14T01:39:04.046Z,13.40
2022-11-14T01:41:49.853Z,13.50
2022-11-14T01:44:48.974Z,13.40
2022-11-14T01:47:35.509Z,13.40
2022-11-14T01:50:21.432Z,13.40
2022-11-14T01:53:07.261Z,13.40
2022-11-14T01:55:57.374Z,13.40
2022-11-14T01:58:48.883Z,13.40
2022-11-14T02:01:38.506Z,13.30
2022-11-14T02:04:49.648Z,13.40
2022-11-14T02:07:39.033Z,13.30
2022-11-14T02:10:25.143Z,13.30
2022-11-14T02:13:10.941Z,13.40
2022-11-14T02:15:57.188Z,13.40
2022-11-14T02:18:42.781Z,13.40
2022-11-14T02:21:28.692Z,13.40
2022-11-14T02:24:14.759Z,13.40
2022-11-14T02:27:00.436Z,13.40
2022-11-14T02:29:46.397Z,13.40
2022-11-14T02:32:45.039Z,13.50
2022-11-14T02:35:38.293Z,13.40
2022-11-14T02:38:24.332Z,13.40
2022-11-14T02:41:10.313Z,13.40
2022-11-14T02:43:56.184Z,13.50
2022-11-14T02:46:43.700Z,13.50
2022-11-14T02:49:29.316Z,13.50
2022-11-14T02:52:15.337Z,13.50
2022-11-14T02:55:01.211Z,13.50
2022-11-14T02:57:46.992Z,13.50
2022-11-14T03:00:33.245Z,13.50
2022-11-14T03:03:19.000Z,13.50
2022-11-14T03:06:05.699Z,13.40
2022-11-14T03:08:51.281Z,13.40
2022-11-14T03:11:37.103Z,13.40
2022-11-14T03:14:23.028Z,13.50
2022-11-14T03:17:09.064Z,13.50
2022-11-14T03:19:54.948Z,13.50
2022-11-14T03:22:40.842Z,13.50
2022-11-14T03:25:27.003Z,13.50
2022-11-14T03:28:12.622Z,13.50
2022-11-14T03:30:58.582Z,13.50
2022-11-14T03:33:44.485Z,13.50
2022-11-14T03:36:30.608Z,13.50
2022-11-14T03:39:16.855Z,13.50
2022-11-14T03:42:02.474Z,13.50
2022-11-14T03:44:48.571Z,13.50
2022-11-14T03:47:34.613Z,13.50
2022-11-14T03:50:20.695Z,13.50
2022-11-14T03:53:06.877Z,13.50
2022-11-14T03:55:53.011Z,13.50
2022-11-14T03:58:39.148Z,13.50
2022-11-14T04:01:25.273Z,13.50
2022-11-14T04:04:14.819Z,13.50
2022-11-14T04:07:00.776Z,13.40
2022-11-14T04:09:47.191Z,13.40
2022-11-14T04:12:33.265Z,13.40
2022-11-14T04:15:19.837Z,13.40
2022-11-14T04:18:05.682Z,13.40
2022-11-14T04:20:52.012Z,13.40
2022-11-14T04:23:37.871Z,13.40
2022-11-14T04:26:23.917Z,13.40
2022-11-14T04:29:09.625Z,13.40
2022-11-14T04:31:55.672Z,13.40
2022-11-14T04:34:41.509Z,13.40
2022-11-14T04:37:27.834Z,13.50
2022-11-14T04:40:14.475Z,13.40
2022-11-14T04:43:00.140Z,13.40
2022-11-14T04:45:46.933Z,13.50
2022-11-14T04:48:33.160Z,13.50
2022-11-14T04:51:19.412Z,13.50
2022-11-14T04:54:05.286Z,13.50
2022-11-14T04:56:51.263Z,13.50
2022-11-14T04:59:37.153Z,13.50
2022-11-14T05:02:23.064Z,13.50
2022-11-14T05:05:09.228Z,13.50
2022-11-14T05:07:55.240Z,13.50
2022-11-14T05:10:44.898Z,13.50
2022-11-14T05:13:31.233Z,13.50
2022-11-14T05:16:17.051Z,13.50
2022-11-14T05:19:03.484Z,13.50
2022-11-14T05:21:49.317Z,13.50
2022-11-14T05:24:34.807Z,13.50
2022-11-14T05:27:20.895Z,13.50
2022-11-14T05:30:07.237Z,13.50
2022-11-14T05:32:53.196Z,13.50
2022-11-14T05:35:39.349Z,13.40
2022-11-14T05:38:25.136Z,13.40
2022-11-14T05:41:20.185Z,13.40
2022-11-14T05:44:06.477Z,13.40
2022-11-14T05:46:52.169Z,13.40
2022-11-14T05:49:38.248Z,13.30
2022-11-14T05:52:24.121Z,13.30
2022-11-14T05:55:10.092Z,13.30
2022-11-14T05:57:59.789Z,13.30
2022-11-14T06:00:51.954Z,13.30
2022-11-14T06:03:45.117Z,13.30
2022-11-14T06:06:31.092Z,13.30
2022-11-14T06:09:17.606Z,13.40
2022-11-14T06:12:06.268Z,13.40
2022-11-14T06:14:51.748Z,13.40
2022-11-14T06:17:37.750Z,13.40
2022-11-14T06:20:23.299Z,13.50
2022-11-14T06:23:09.359Z,13.50
2022-11-14T06:26:07.519Z,13.50
2022-11-14T06:28:53.982Z,13.50
2022-11-14T06:31:39.784Z,13.50
2022-11-14T06:34:25.729Z,13.50
2022-11-14T06:37:11.726Z,13.50
2022-11-14T06:39:57.691Z,13.50
2022-11-14T06:42:43.567Z,13.50
2022-11-14T06:45:29.568Z,13.60
2022-11-14T06:48:15.398Z,13.50
2022-11-14T06:51:02.729Z,13.50
2022-11-14T06:53:48.534Z,13.50
2022-11-14T06:56:35.341Z,13.50
2022-11-14T06:59:21.315Z,13.50
2022-11-14T07:02:07.192Z,13.50
2022-11-14T07:04:53.095Z,13.50
2022-11-14T07:07:38.979Z,13.50
2022-11-14T07:10:24.835Z,13.50
2022-11-14T07:13:11.553Z,13.50
2022-11-14T07:15:57.479Z,13.50
2022-11-14T07:18:43.187Z,13.50
2022-11-14T07:21:30.900Z,13.50
2022-11-14T07:24:17.130Z,13.50
2022-11-14T07:27:08.580Z,13.50
2022-11-14T07:29:54.384Z,13.50
2022-11-14T07:32:40.482Z,13.50
2022-11-14T07:35:26.448Z,13.50
2022-11-14T07:38:12.492Z,13.50
2022-11-14T07:41:03.876Z,13.50
2022-11-14T07:43:49.544Z,13.50
2022-11-14T07:46:35.424Z,13.60
2022-11-14T07:49:21.439Z,13.60
2022-11-14T07:52:07.341Z,13.60
2022-11-14T07:54:53.216Z,13.60
2022-11-14T07:57:42.836Z,13.60
2022-11-14T08:00:29.920Z,13.60
2022-11-14T08:03:15.693Z,13.70
2022-11-14T08:06:10.325Z,13.70
2022-11-14T08:08:55.858Z,13.70
2022-11-14T08:11:50.885Z,13.70
2022-11-14T08:14:36.670Z,13.70
2022-11-14T08:17:23.896Z,13.70
2022-11-14T08:20:10.448Z,13.80
2022-11-14T08:23:07.192Z,13.80
2022-11-14T08:25:53.260Z,13.80
2022-11-14T08:28:39.319Z,13.80
2022-11-14T08:31:25.244Z,13.90
2022-11-14T08:34:11.204Z,14.00
2022-11-14T08:36:57.894Z,14.00
2022-11-14T08:39:43.810Z,14.10
2022-11-14T08:42:30.033Z,14.10
2022-11-14T08:45:15.783Z,14.20
2022-11-14T08:48:01.473Z,14.20
2022-11-14T08:50:47.609Z,14.20
2022-11-14T08:53:34.595Z,14.20
2022-11-14T08:56:20.136Z,14.30
2022-11-14T08:59:06.121Z,14.30
2022-11-14T09:01:51.890Z,14.40
2022-11-14T09:04:38.176Z,14.40
2022-11-14T09:07:24.430Z,14.50
2022-11-14T09:10:10.345Z,14.50
2022-11-14T09:12:57.623Z,14.50
2022-11-14T09:15:43.814Z,14.50
2022-11-14T09:18:30.897Z,14.50
2022-11-14T09:21:16.974Z,14.50
2022-11-14T09:24:02.733Z,14.60
2022-11-14T09:26:56.137Z,14.50
2022-11-14T09:29:42.506Z,14.50
2022-11-14T09:32:28.596Z,14.60
2022-11-14T09:35:14.891Z,14.60
2022-11-14T09:38:08.584Z,14.60
2022-11-14T09:41:24.841Z,14.70
2022-11-14T09:44:19.166Z,14.80
2022-11-14T09:47:16.652Z,14.80
2022-11-14T09:50:29.280Z,14.80
2022-11-14T09:53:50.275Z,14.90
2022-11-14T09:56:36.456Z,15.10
2022-11-14T09:59:22.422Z,15.10
2022-11-14T10:02:20.183Z,15.20
2022-11-14T10:05:38.107Z,15.30
2022-11-14T10:08:37.135Z,15.40
2022-11-14T10:11:35.450Z,15.40
2022-11-14T10:14:42.462Z,15.40
2022-11-14T10:17:47.262Z,15.50
2022-11-14T10:21:07.924Z,15.60
2022-11-14T10:24:05.817Z,15.70
2022-11-14T10:27:02.543Z,15.80
2022-11-14T10:30:06.516Z,15.90
2022-11-14T10:32:52.355Z,16.10
2022-11-14T10:35:45.892Z,16.20
2022-11-14T10:38:57.576Z,16.50
2022-11-14T10:41:58.002Z,16.70
2022-11-14T10:45:19.866Z,16.90
2022-11-14T10:48:43.387Z,17.00
2022-11-14T10:51:46.436Z,16.80
2022-11-14T10:54:41.377Z,16.90
2022-11-14T10:57:28.750Z,17.00
2022-11-14T11:00:20.468Z,17.10
2022-11-14T11:03:07.614Z,17.50
2022-11-14T11:05:57.665Z,18.20
2022-11-14T11:09:03.185Z,18.70
2022-11-14T11:12:04.081Z,18.90
2022-11-14T11:15:08.408Z,19.00
2022-11-14T11:17:56.476Z,19.60
2022-11-14T11:20:42.638Z,20.50
2022-11-14T11:23:28.765Z,21.60
2022-11-14T11:26:24.204Z,23.00
2022-11-14T11:29:10.336Z,24.40
2022-11-14T11:31:59.837Z,26.10
2022-11-14T11:34:46.190Z,27.60
2022-11-14T11:37:46.674Z,28.70
2022-11-14T11:40:32.505Z,29.90
2022-11-14T11:43:57.095Z,31.00
2022-11-14T11:46:55.839Z,32.20
2022-11-14T11:49:51.810Z,33.10
2022-11-14T11:52:57.289Z,33.90
2022-11-14T11:55:46.260Z,34.50
2022-11-14T11:58:46.033Z,35.00
2022-11-14T12:01:31.801Z,35.40
2022-11-14T12:04:18.202Z,35.80
2022-11-14T12:07:18.725Z,36.00
2022-11-14T12:10:31.107Z,36.00
2022-11-14T12:14:05.060Z,36.10
2022-11-14T12:17:11.732Z,36.10
2022-11-14T12:20:22.309Z,35.10
2022-11-14T12:23:45.759Z,35.00
2022-11-14T12:26:52.979Z,34.10
2022-11-14T12:30:12.175Z,32.50
2022-11-14T12:33:04.062Z,32.70
2022-11-14T12:35:53.240Z,33.80
2022-11-14T12:38:48.353Z,34.50
2022-11-14T12:41:38.344Z,35.20
2022-11-14T12:44:27.285Z,35.50
2022-11-14T12:47:14.716Z,34.20
2022-11-14T12:50:02.301Z,32.90
2022-11-14T12:52:50.281Z,33.20
2022-11-14T12:55:35.939Z,33.80
2022-11-14T12:58:45.816Z,35.00
2022-11-14T13:01:31.652Z,35.30
2022-11-14T13:04:44.207Z,33.80
2022-11-14T13:07:45.297Z,31.80
2022-11-14T13:10:36.791Z,29.50
2022-11-14T13:13:41.956Z,28.60
2022-11-14T13:16:50.809Z,27.40
2022-11-14T13:20:04.541Z,26.10
2022-11-14T13:22:50.598Z,24.80
2022-11-14T13:25:36.444Z,23.90
2022-11-14T13:28:37.760Z,23.10
2022-11-14T13:31:46.877Z,22.30
2022-11-14T13:34:49.745Z,21.80
2022-11-14T13:38:04.166Z,21.90
2022-11-14T13:41:04.410Z,21.50
2022-11-14T13:44:00.156Z,20.90
2022-11-14T13:47:18.706Z,20.50
2022-11-14T13:50:08.915Z,20.20
2022-11-14T13:52:55.017Z,19.90
2022-11-14T13:56:04.654Z,19.90
2022-11-14T13:59:32.200Z,19.70
2022-11-14T14:02:31.862Z,19.70
2022-11-14T14:05:20.990Z,19.60
2022-11-14T14:08:34.600Z,19.60
2022-11-14T14:11:23.341Z,19.50
2022-11-14T14:14:45.394Z,19.40
2022-11-14T14:17:38.666Z,19.20
2022-11-14T14:20:39.607Z,19.00
2022-11-14T14:23:55.860Z,18.90
2022-11-14T14:27:03.935Z,18.80
2022-11-14T14:30:03.644Z,18.90
2022-11-14T14:33:07.941Z,18.90
2022-11-14T14:35:54.326Z,18.70
2022-11-14T14:38:40.036Z,18.50
2022-11-14T14:41:30.805Z,18.40
2022-11-14T14:44:22.125Z,18.30
2022-11-14T14:47:34.811Z,18.30
2022-11-14T14:50:23.818Z,18.10
2022-11-14T14:53:26.284Z,18.10
2022-11-14T14:56:21.902Z,17.90
2022-11-14T14:59:19.088Z,17.90
2022-11-14T15:02:21.879Z,17.80
2022-11-14T15:05:07.798Z,17.70
2022-11-14T15:07:56.946Z,17.60
2022-11-14T15:10:43.929Z,17.60
2022-11-14T15:13:31.522Z,17.60
2022-11-14T15:16:17.577Z,17.50
2022-11-14T15:19:04.125Z,17.50
2022-11-14T15:22:10.844Z,17.40
2022-11-14T15:25:13.351Z,17.20
2022-11-14T15:28:00.398Z,17.00
2022-11-14T15:30:58.889Z,17.00
2022-11-14T15:33:45.244Z,16.90
2022-11-14T15:36:31.243Z,16.80
2022-11-14T15:39:27.662Z,16.70
2022-11-14T15:42:21.399Z,16.60
2022-11-14T15:45:27.787Z,16.60
2022-11-14T15:48:18.067Z,16.60
2022-11-14T15:51:03.702Z,16.60
2022-11-14T15:53:50.084Z,16.50
2022-11-14T15:56:37.813Z,16.40
2022-11-14T15:59:24.618Z,16.40
2022-11-14T16:02:22.987Z,16.40
2022-11-14T16:05:14.063Z,16.30
2022-11-14T16:08:00.191Z,16.20
2022-11-14T16:10:46.119Z,16.10
2022-11-14T16:13:32.290Z,16.00
2022-11-14T16:16:18.444Z,16.10
2022-11-14T16:19:05.026Z,16.00
2022-11-14T16:21:50.872Z,16.00
2022-11-14T16:24:36.744Z,16.00
2022-11-14T16:27:22.489Z,15.90
2022-11-14T16:30:10.667Z,15.90
2022-11-14T16:32:56.751Z,15.80
2022-11-14T16:35:42.632Z,15.80
2022-11-14T16:38:28.652Z,15.70
2022-11-14T16:41:15.662Z,15.70
2022-11-14T16:44:01.349Z,15.60
2022-11-14T16:46:47.444Z,15.60
2022-11-14T16:49:32.865Z,15.60
2022-11-14T16:52:19.862Z,15.50
2022-11-14T16:55:07.277Z,15.50
2022-11-14T16:57:53.570Z,15.50
2022-11-14T17:00:43.327Z,15.40
2022-11-14T17:03:31.220Z,15.40
2022-11-14T17:06:17.754Z,15.30
2022-11-14T17:09:03.613Z,15.20
2022-11-14T17:11:49.533Z,15.20
2022-11-14T17:14:35.482Z,15.20
2022-11-14T17:17:21.758Z,15.20
2022-11-14T17:20:08.602Z,15.10
2022-11-14T17:22:55.354Z,15.00
2022-11-14T17:25:40.947Z,15.00
2022-11-14T17:28:27.025Z,14.90
2022-11-14T17:31:12.849Z,14.90
2022-11-14T17:33:59.309Z,14.80
2022-11-14T17:36:45.221Z,14.80
2022-11-14T17:39:31.403Z,14.70
2022-11-14T17:42:17.970Z,14.70
2022-11-14T17:45:05.041Z,14.70
2022-11-14T17:47:51.892Z,14.60
2022-11-14T17:50:41.535Z,14.70
2022-11-14T17:53:27.669Z,14.60
2022-11-14T17:56:24.965Z,14.60
2022-11-14T17:59:11.134Z,14.60
2022-11-14T18:01:59.926Z,14.60
2022-11-14T18:04:47.095Z,14.50
2022-11-14T18:07:33.151Z,14.50
2022-11-14T18:10:19.449Z,14.60
2022-11-14T18:13:05.731Z,14.50
2022-11-14T18:15:51.699Z,14.50
2022-11-14T18:18:37.701Z,14.50
2022-11-14T18:21:25.074Z,14.40
2022-11-14T18:24:13.428Z,14.40
2022-11-14T18:26:59.901Z,14.40
2022-11-14T18:29:45.540Z,14.40
2022-11-14T18:32:31.497Z,14.40
2022-11-14T18:35:17.487Z,14.40
2022-11-14T18:38:03.446Z,14.30
2022-11-14T18:40:54.337Z,14.30
2022-11-14T18:43:44.380Z,14.30
2022-11-14T18:46:36.897Z,14.20
2022-11-14T18:49:23.538Z,14.20
2022-11-14T18:52:15.766Z,14.10
2022-11-14T18:55:04.794Z,14.10
2022-11-14T18:57:50.841Z,14.00
2022-11-14T19:00:36.920Z,13.90
2022-11-14T19:03:22.830Z,13.90
2022-11-14T19:06:10.370Z,13.80
2022-11-14T19:09:00.990Z,13.80
2022-11-14T19:12:05.376Z,13.80
2022-11-14T19:14:51.867Z,13.80
2022-11-14T19:17:38.048Z,13.80
2022-11-14T19:20:23.761Z,13.70
2022-11-14T19:23:09.424Z,13.60
2022-11-14T19:26:00.732Z,13.60
2022-11-14T19:28:47.899Z,13.50
2022-11-14T19:31:33.996Z,13.50
2022-11-14T19:34:19.577Z,13.50
2022-11-14T19:37:05.659Z,13.40
2022-11-14T19:39:55.325Z,13.40
2022-11-14T19:42:41.178Z,13.30
2022-11-14T19:45:27.234Z,13.30
2022-11-14T19:48:13.505Z,13.30
2022-11-14T19:51:01.137Z,13.20
2022-11-14T19:53:47.379Z,13.30
2022-11-14T19:56:33.123Z,13.20
2022-11-14T19:59:23.960Z,13.20
2022-11-14T20:02:14.350Z,13.20
2022-11-14T20:05:00.355Z,13.10
2022-11-14T20:07:46.509Z,13.10
2022-11-14T20:10:47.489Z,13.00
2022-11-14T20:13:36.822Z,12.90
2022-11-14T20:16:25.078Z,12.90
2022-11-14T20:19:12.029Z,12.80
2022-11-14T20:21:58.029Z,12.80
2022-11-14T20:24:45.732Z,12.80
2022-11-14T20:27:32.538Z,12.80
2022-11-14T20:30:18.548Z,12.80
2022-11-14T20:33:04.757Z,12.80
2022-11-14T20:35:50.472Z,12.80
2022-11-14T20:38:36.755Z,12.80
2022-11-14T20:41:23.723Z,12.80
2022-11-14T20:44:09.843Z,12.80
2022-11-14T20:46:57.815Z,12.80
2022-11-14T20:49:45.016Z,12.80
2022-11-14T20:52:31.344Z,12.90
2022-11-14T20:55:17.746Z,12.90
2022-11-14T20:58:04.152Z,12.90
2022-11-14T21:00:51.599Z,12.90
2022-11-14T21:03:39.212Z,12.80
2022-11-14T21:06:25.205Z,12.80
2022-11-14T21:09:11.456Z,12.80
2022-11-14T21:11:57.431Z,12.90
2022-11-14T21:14:43.728Z,12.80
2022-11-14T21:17:31.887Z,12.80
2022-11-14T21:20:17.745Z,12.80
2022-11-14T21:23:03.764Z,12.80
2022-11-14T21:25:49.682Z,12.80
2022-11-14T21:28:38.345Z,12.80
2022-11-14T21:31:33.499Z,12.80
2022-11-14T21:34:19.410Z,12.70
2022-11-14T21:37:05.540Z,12.70
2022-11-14T21:39:51.134Z,12.60
2022-11-14T21:42:39.693Z,12.50
2022-11-14T21:45:25.729Z,12.50
2022-11-14T21:48:11.557Z,12.40
2022-11-14T21:51:06.919Z,12.30
2022-11-14T21:53:55.344Z,12.30
2022-11-14T21:56:41.341Z,12.30
2022-11-14T21:59:28.996Z,12.20
2022-11-14T22:02:33.545Z,12.20
2022-11-14T22:05:19.442Z,12.20
2022-11-14T22:08:05.711Z,12.10
2022-11-14T22:10:51.805Z,12.10
2022-11-14T22:13:37.422Z,12.10
2022-11-14T22:16:24.115Z,12.10
2022-11-14T22:19:09.844Z,12.00
2022-11-14T22:21:56.088Z,12.00
2022-11-14T22:24:41.943Z,12.00
2022-11-14T22:27:28.002Z,11.90
2022-11-14T22:30:14.250Z,11.90
2022-11-14T22:33:00.466Z,11.90
2022-11-14T22:35:46.487Z,11.80
2022-11-14T22:38:35.243Z,11.80
2022-11-14T22:41:30.523Z,11.80
2022-11-14T22:44:18.141Z,11.80
2022-11-14T22:47:04.072Z,11.80
2022-11-14T22:49:50.017Z,11.80
2022-11-14T22:52:36.137Z,11.80
2022-11-14T22:55:22.178Z,11.90
2022-11-14T22:58:08.007Z,11.80
2022-11-14T23:00:54.056Z,11.80
2022-11-14T23:03:40.639Z,11.80
2022-11-14T23:06:28.175Z,11.70
2022-11-14T23:09:13.935Z,11.70
2022-11-14T23:11:59.797Z,11.70
2022-11-14T23:14:45.835Z,11.70
2022-11-14T23:17:32.092Z,11.70
2022-11-14T23:20:18.635Z,11.60
2022-11-14T23:23:04.691Z,11.70
2022-11-14T23:25:50.496Z,11.70
2022-11-14T23:28:37.217Z,11.60
2022-11-14T23:31:23.945Z,11.60
2022-11-14T23:34:09.645Z,11.50
2022-11-14T23:36:55.713Z,11.50
2022-11-14T23:39:41.668Z,11.50
2022-11-14T23:42:27.416Z,11.50
2022-11-14T23:45:13.400Z,11.40
2022-11-14T23:47:59.228Z,11.40
2022-11-14T23:50:49.195Z,11.40
2022-11-14T23:53:34.895Z,11.40
2022-11-14T23:56:20.689Z,11.40
2022-11-14T23:59:06.857Z,11.40
